createdAt,value
2023-10-12T00:01:58.257Z,2.67
2023-10-12T00:04:00.621Z,2.70
2023-10-12T00:06:03.162Z,2.55
2023-10-12T00:08:11.264Z,2.90
2023-10-12T00:10:13.772Z,2.38
2023-10-12T00:12:16.653Z,2.67
2023-10-12T00:14:18.356Z,2.92
2023-10-12T00:16:20.456Z,3.05
2023-10-12T00:18:23.451Z,2.80
2023-10-12T00:20:25.766Z,2.80
2023-10-12T00:22:27.318Z,2.53
2023-10-12T00:24:28.973Z,3.00
2023-10-12T00:26:32.579Z,2.72
2023-10-12T00:28:40.265Z,3.08
2023-10-12T00:30:42.947Z,2.58
2023-10-12T00:32:45.029Z,2.97
2023-10-12T00:34:49.948Z,2.70
2023-10-12T00:36:53.831Z,2.53
2023-10-12T00:39:00.515Z,3.08
2023-10-12T00:41:05.969Z,2.92
2023-10-12T00:43:07.884Z,3.05
2023-10-12T00:45:20.395Z,2.70
2023-10-12T00:47:40.961Z,2.33
2023-10-12T00:49:49.925Z,2.60
2023-10-12T00:51:53.658Z,2.60
2023-10-12T00:53:58.333Z,2.70
2023-10-12T00:56:02.874Z,2.70
2023-10-12T00:58:06.415Z,2.80
2023-10-12T01:00:16.560Z,3.03
2023-10-12T01:02:22.310Z,3.10
2023-10-12T01:04:24.188Z,3.47
2023-10-12T01:06:28.427Z,2.75
2023-10-12T01:08:31.559Z,2.83
2023-10-12T01:10:34.233Z,3.10
2023-10-12T01:12:35.868Z,2.63
2023-10-12T01:14:40.910Z,2.92
2023-10-12T01:16:51.207Z,2.67
2023-10-12T01:19:06.754Z,3.05
2023-10-12T01:21:12.569Z,2.67
2023-10-12T01:23:14.351Z,3.20
2023-10-12T01:25:30.110Z,2.92
2023-10-12T01:27:31.761Z,2.60
2023-10-12T01:29:33.419Z,2.75
2023-10-12T01:33:42.786Z,2.90
2023-10-12T01:35:50.997Z,2.75
2023-10-12T01:38:02.362Z,3.20
2023-10-12T01:40:04.401Z,3.13
2023-10-12T01:42:08.197Z,2.60
2023-10-12T01:44:13.812Z,2.78
2023-10-12T01:46:22.632Z,3.20
2023-10-12T01:48:24.402Z,2.90
2023-10-12T01:50:26.220Z,3.08
2023-10-12T01:54:30.724Z,2.58
2023-10-12T01:56:35.898Z,2.88
2023-10-12T01:58:39.759Z,3.08
2023-10-12T02:00:42.930Z,2.70
2023-10-12T02:02:51.390Z,2.90
2023-10-12T02:04:53.407Z,2.83
2023-10-12T02:06:57.356Z,2.95
2023-10-12T02:09:11.747Z,2.72
2023-10-12T02:11:17.806Z,2.83
2023-10-12T02:13:22.781Z,2.63
2023-10-12T02:15:33.081Z,3.10
2023-10-12T02:17:37.036Z,3.00
2023-10-12T02:19:45.286Z,3.20
2023-10-12T02:21:48.055Z,3.40
2023-10-12T02:23:59.046Z,2.92
2023-10-12T02:26:00.697Z,3.10
2023-10-12T02:28:04.915Z,3.20
2023-10-12T02:30:08.666Z,3.10
2023-10-12T02:32:24.017Z,3.00
2023-10-12T02:34:28.388Z,3.00
2023-10-12T02:36:30.423Z,2.65
2023-10-12T02:38:32.487Z,3.50
2023-10-12T02:40:34.985Z,2.60
2023-10-12T02:44:48.920Z,2.80
2023-10-12T02:47:22.636Z,2.90
2023-10-12T02:49:25.306Z,2.83
2023-10-12T02:51:26.960Z,2.55
2023-10-12T02:53:31.333Z,2.85
2023-10-12T02:55:41.780Z,2.53
2023-10-12T02:57:54.418Z,3.05
2023-10-12T02:59:58.801Z,2.63
2023-10-12T03:02:19.585Z,2.60
2023-10-12T03:04:21.684Z,3.03
2023-10-12T03:06:26.591Z,3.20
2023-10-12T03:08:47.978Z,2.92
2023-10-12T03:11:00.908Z,2.50
2023-10-12T03:13:06.213Z,2.97
2023-10-12T03:15:14.788Z,3.05
2023-10-12T03:17:17.482Z,3.20
2023-10-12T03:19:29.594Z,2.83
2023-10-12T03:21:34.552Z,3.03
2023-10-12T03:23:36.341Z,2.97
2023-10-12T03:25:47.729Z,3.38
2023-10-12T03:27:53.425Z,3.13
2023-10-12T03:30:07.658Z,2.63
2023-10-12T03:32:09.342Z,3.33
2023-10-12T03:34:29.780Z,2.80
2023-10-12T03:36:34.203Z,3.08
2023-10-12T03:38:36.385Z,2.65
2023-10-12T03:40:51.743Z,3.00
2023-10-12T03:42:56.013Z,3.13
2023-10-12T03:45:14.764Z,2.97
2023-10-12T03:47:24.789Z,2.60
2023-10-12T03:49:45.240Z,3.08
2023-10-12T03:51:47.435Z,2.83
2023-10-12T03:56:02.214Z,2.60
2023-10-12T03:58:07.886Z,2.78
2023-10-12T04:00:10.472Z,2.42
2023-10-12T04:02:16.412Z,2.92
2023-10-12T04:07:01.441Z,2.70
2023-10-12T04:09:15.644Z,2.63
2023-10-12T04:13:27.649Z,2.92
2023-10-12T04:15:36.199Z,2.88
2023-10-12T04:17:49.044Z,2.80
2023-10-12T04:20:16.058Z,2.80
2023-10-12T04:22:27.342Z,3.35
2023-10-12T04:24:29.003Z,2.58
2023-10-12T04:26:36.455Z,2.75
2023-10-12T04:28:38.069Z,3.22
2023-10-12T04:30:51.708Z,3.55
2023-10-12T04:33:12.525Z,3.20
2023-10-12T04:35:22.278Z,2.70
2023-10-12T04:37:28.723Z,2.90
2023-10-12T04:39:37.832Z,2.97
2023-10-12T04:41:39.902Z,2.80
2023-10-12T04:43:41.431Z,4.13
2023-10-12T04:46:02.331Z,2.60
2023-10-12T04:48:19.169Z,3.00
2023-10-12T04:50:44.568Z,3.38
2023-10-12T04:53:06.717Z,3.22
2023-10-12T04:55:18.892Z,2.90
2023-10-12T04:57:27.425Z,2.83
2023-10-12T04:59:50.598Z,2.60
2023-10-12T05:02:10.212Z,2.90
2023-10-12T05:04:27.788Z,3.03
2023-10-12T05:06:32.354Z,2.83
2023-10-12T05:08:35.605Z,3.03
2023-10-12T05:10:37.249Z,3.47
2023-10-12T05:12:38.907Z,2.85
2023-10-12T05:14:40.510Z,3.13
2023-10-12T05:16:46.649Z,3.35
2023-10-12T05:18:49.306Z,3.13
2023-10-12T05:20:51.858Z,3.20
2023-10-12T05:22:54.053Z,3.17
2023-10-12T05:24:55.799Z,3.03
2023-10-12T05:27:10.342Z,3.42
2023-10-12T05:29:27.144Z,2.58
2023-10-12T05:31:29.498Z,2.92
2023-10-12T05:33:34.335Z,3.20
2023-10-12T05:35:53.708Z,2.70
2023-10-12T05:37:57.437Z,3.40
2023-10-12T05:40:01.065Z,3.00
2023-10-12T05:42:07.330Z,2.67
2023-10-12T05:44:15.283Z,3.05
2023-10-12T05:46:16.948Z,2.95
2023-10-12T05:48:20.438Z,3.17
2023-10-12T05:50:26.156Z,3.22
2023-10-12T05:52:28.086Z,3.00
2023-10-12T05:54:29.918Z,2.92
2023-10-12T05:56:34.072Z,3.20
2023-10-12T05:58:35.718Z,3.30
2023-10-12T06:00:37.643Z,3.20
2023-10-12T06:02:39.714Z,3.28
2023-10-12T06:04:43.103Z,2.83
2023-10-12T06:06:44.898Z,2.72
2023-10-12T06:08:46.489Z,2.83
2023-10-12T06:10:48.127Z,3.20
2023-10-12T06:12:50.132Z,3.30
2023-10-12T06:14:54.755Z,3.15
2023-10-12T06:16:57.619Z,2.72
2023-10-12T06:19:01.862Z,2.75
2023-10-12T06:21:10.117Z,3.17
2023-10-12T06:25:19.554Z,2.70
2023-10-12T06:27:21.249Z,3.08
2023-10-12T06:29:27.124Z,3.10
2023-10-12T06:31:30.842Z,3.72
2023-10-12T06:33:32.821Z,3.28
2023-10-12T06:35:36.655Z,3.28
2023-10-12T06:37:57.392Z,3.13
2023-10-12T06:40:17.668Z,2.90
2023-10-12T06:42:28.008Z,2.72
2023-10-12T06:44:30.107Z,3.13
2023-10-12T06:46:45.018Z,3.22
2023-10-12T06:48:48.310Z,2.88
2023-10-12T06:50:54.759Z,3.55
2023-10-12T06:52:58.563Z,2.75
2023-10-12T06:55:01.086Z,3.00
2023-10-12T06:57:18.969Z,3.53
2023-10-12T06:59:21.007Z,2.85
2023-10-12T07:01:28.287Z,3.85
2023-10-12T07:03:29.812Z,3.30
2023-10-12T07:05:34.650Z,2.90
2023-10-12T07:07:42.495Z,3.28
2023-10-12T07:09:45.793Z,3.47
2023-10-12T07:11:47.488Z,3.28
2023-10-12T07:13:50.820Z,3.35
2023-10-12T07:15:52.454Z,3.08
2023-10-12T07:17:55.231Z,3.33
2023-10-12T07:19:56.874Z,2.92
2023-10-12T07:22:02.461Z,3.38
2023-10-12T07:24:09.282Z,2.83
2023-10-12T07:26:13.872Z,2.97
2023-10-12T07:28:33.498Z,3.20
2023-10-12T07:30:37.300Z,3.55
2023-10-12T07:32:57.244Z,3.20
2023-10-12T07:35:10.558Z,2.78
2023-10-12T07:37:17.574Z,3.13
2023-10-12T07:39:23.924Z,3.15
2023-10-12T07:41:34.585Z,2.85
2023-10-12T07:43:39.754Z,2.85
2023-10-12T07:45:49.215Z,3.53
2023-10-12T07:48:00.611Z,3.20
2023-10-12T07:50:12.480Z,3.28
2023-10-12T07:52:17.084Z,3.30
2023-10-12T07:54:38.798Z,3.08
2023-10-12T07:56:41.546Z,3.38
2023-10-12T07:58:59.621Z,3.25
2023-10-12T08:01:19.884Z,3.25
2023-10-12T08:03:26.294Z,3.33
2023-10-12T08:05:48.248Z,3.25
2023-10-12T08:08:00.450Z,3.17
2023-10-12T08:10:10.972Z,3.75
2023-10-12T08:12:27.226Z,3.20
2023-10-12T08:14:29.256Z,3.13
2023-10-12T08:16:38.267Z,3.20
2023-10-12T08:19:02.817Z,3.03
2023-10-12T08:21:11.852Z,2.75
2023-10-12T08:23:18.960Z,3.10
2023-10-12T08:25:28.551Z,2.90
2023-10-12T08:27:40.814Z,2.88
2023-10-12T08:29:42.386Z,2.92
2023-10-12T08:31:45.221Z,3.58
2023-10-12T08:33:49.996Z,4.25
2023-10-12T08:36:09.926Z,4.50
2023-10-12T08:38:13.194Z,3.88
2023-10-12T08:40:21.143Z,3.70
2023-10-12T08:42:23.729Z,3.20
2023-10-12T08:44:25.658Z,2.75
2023-10-12T08:46:43.016Z,2.97
2023-10-12T08:48:54.590Z,3.60
2023-10-12T08:51:10.262Z,3.35
2023-10-12T08:53:14.755Z,3.33
2023-10-12T08:55:20.291Z,3.25
2023-10-12T08:57:36.837Z,3.28
2023-10-12T08:59:43.884Z,3.17
2023-10-12T09:01:45.929Z,3.53
2023-10-12T09:03:47.675Z,3.30
2023-10-12T09:06:01.659Z,3.10
2023-10-12T09:08:14.677Z,3.10
2023-10-12T09:10:37.636Z,3.40
2023-10-12T09:12:41.423Z,3.47
2023-10-12T09:14:44.639Z,3.67
2023-10-12T09:16:56.925Z,3.47
2023-10-12T09:18:59.025Z,3.30
2023-10-12T09:23:23.114Z,3.13
2023-10-12T09:25:43.474Z,3.47
2023-10-12T09:27:50.823Z,3.58
2023-10-12T09:29:59.305Z,3.00
2023-10-12T09:32:19.619Z,3.40
2023-10-12T09:34:43.706Z,3.60
2023-10-12T09:36:51.001Z,3.10
2023-10-12T09:38:58.426Z,3.53
2023-10-12T09:41:00.718Z,3.70
2023-10-12T09:43:08.162Z,3.60
2023-10-12T09:45:29.477Z,3.40
2023-10-12T09:47:45.304Z,3.63
2023-10-12T09:49:55.334Z,3.45
2023-10-12T09:52:01.157Z,4.20
2023-10-12T09:54:17.489Z,3.70
2023-10-12T09:56:25.467Z,3.58
2023-10-12T09:58:27.312Z,3.33
2023-10-12T10:00:29.417Z,4.07
2023-10-12T10:02:35.748Z,3.83
2023-10-12T10:04:42.329Z,3.80
2023-10-12T10:06:52.734Z,3.67
2023-10-12T10:09:24.329Z,3.40
2023-10-12T10:11:27.851Z,3.65
2023-10-12T10:13:50.649Z,3.58
2023-10-12T10:16:00.231Z,3.58
2023-10-12T10:18:02.406Z,4.07
2023-10-12T10:22:17.643Z,3.70
2023-10-12T10:24:25.989Z,3.58
2023-10-12T10:26:35.653Z,4.68
2023-10-12T10:28:37.505Z,4.43
2023-10-12T10:30:42.194Z,3.58
2023-10-12T10:32:46.554Z,3.55
2023-10-12T10:34:48.227Z,4.13
2023-10-12T10:36:53.389Z,3.80
2023-10-12T10:38:55.862Z,4.63
2023-10-12T10:41:06.696Z,3.70
2023-10-12T10:43:15.775Z,3.90
2023-10-12T10:45:17.434Z,3.95
2023-10-12T10:47:22.416Z,3.72
2023-10-12T10:49:34.318Z,3.63
2023-10-12T10:51:41.862Z,4.05
2023-10-12T10:53:43.540Z,3.70
2023-10-12T10:57:51.350Z,3.70
2023-10-12T10:59:53.597Z,4.20
2023-10-12T11:01:57.457Z,3.85
2023-10-12T11:04:01.684Z,4.22
2023-10-12T11:06:03.590Z,4.65
2023-10-12T11:08:21.222Z,4.50
2023-10-12T11:10:49.184Z,4.15
2023-10-12T11:12:51.138Z,4.15
2023-10-12T11:15:01.380Z,4.20
2023-10-12T11:17:06.481Z,4.68
2023-10-12T11:19:10.363Z,4.32
2023-10-12T11:21:12.396Z,4.40
2023-10-12T11:23:16.754Z,4.57
2023-10-12T11:25:19.943Z,4.30
2023-10-12T11:27:32.304Z,4.15
2023-10-12T11:29:51.097Z,4.70
2023-10-12T11:32:09.754Z,4.55
2023-10-12T11:34:13.958Z,5.10
2023-10-12T11:36:25.096Z,4.32
2023-10-12T11:38:28.035Z,4.57
2023-10-12T11:40:32.715Z,4.60
2023-10-12T11:42:35.434Z,4.68
2023-10-12T11:44:38.149Z,4.70
2023-10-12T11:46:44.792Z,5.15
2023-10-12T11:49:01.950Z,4.50
2023-10-12T11:51:14.181Z,5.20
2023-10-12T11:53:16.548Z,4.75
2023-10-12T11:55:20.547Z,4.93
2023-10-12T11:57:22.594Z,4.90
2023-10-12T11:59:28.143Z,5.40
2023-10-12T12:01:34.389Z,5.15
2023-10-12T12:03:41.039Z,4.70
2023-10-12T12:05:44.876Z,5.22
2023-10-12T12:07:52.195Z,4.90
2023-10-12T12:10:01.528Z,4.90
2023-10-12T12:12:08.724Z,6.15
2023-10-12T12:14:10.511Z,5.38
2023-10-12T12:16:12.176Z,5.50
2023-10-12T12:18:19.760Z,5.78
2023-10-12T12:20:24.341Z,5.40
2023-10-12T12:22:26.574Z,5.40
2023-10-12T12:26:34.825Z,4.80
2023-10-12T12:28:44.497Z,5.45
2023-10-12T12:30:59.777Z,5.00
2023-10-12T12:33:03.899Z,5.65
2023-10-12T12:35:07.514Z,4.78
2023-10-12T12:37:10.037Z,5.75
2023-10-12T12:39:12.901Z,6.00
2023-10-12T12:41:23.442Z,5.80
2023-10-12T12:43:25.104Z,5.70
2023-10-12T12:45:26.785Z,5.50
2023-10-12T12:47:30.666Z,6.13
2023-10-12T12:49:32.268Z,5.93
2023-10-12T12:51:33.844Z,5.53
2023-10-12T12:53:35.554Z,5.57
2023-10-12T12:55:39.594Z,5.55
2023-10-12T12:57:43.266Z,5.38
2023-10-12T12:59:45.054Z,5.63
2023-10-12T13:01:47.393Z,5.53
2023-10-12T13:03:49.162Z,5.68
2023-10-12T13:05:50.785Z,5.00
2023-10-12T13:07:52.368Z,6.07
2023-10-12T13:09:54.861Z,5.72
2023-10-12T13:11:57.609Z,5.45
2023-10-12T13:13:59.121Z,5.35
2023-10-12T13:16:05.103Z,4.75
2023-10-12T13:18:08.721Z,4.50
2023-10-12T13:20:20.048Z,5.18
2023-10-12T13:22:21.726Z,4.75
2023-10-12T13:24:23.258Z,4.97
2023-10-12T13:26:25.261Z,4.80
2023-10-12T13:28:28.287Z,5.03
2023-10-12T13:30:31.914Z,4.75
2023-10-12T13:32:33.543Z,5.10
2023-10-12T13:34:35.284Z,4.65
2023-10-12T13:36:40.289Z,4.68
2023-10-12T13:38:43.005Z,5.18
2023-10-12T13:40:47.487Z,4.30
2023-10-12T13:42:49.189Z,4.50
2023-10-12T13:44:51.665Z,4.97
2023-10-12T13:46:53.653Z,5.05
2023-10-12T13:48:55.395Z,5.40
2023-10-12T13:51:21.220Z,4.90
2023-10-12T13:53:24.268Z,4.80
2023-10-12T13:55:27.704Z,4.82
2023-10-12T13:57:29.549Z,4.88
2023-10-12T13:59:31.185Z,4.45
2023-10-12T14:01:37.774Z,4.63
2023-10-12T14:03:39.970Z,5.13
2023-10-12T14:05:41.815Z,4.88
2023-10-12T14:07:43.357Z,4.70
2023-10-12T14:09:45.049Z,4.90
2023-10-12T14:11:52.504Z,5.03
2023-10-12T14:13:54.098Z,5.05
2023-10-12T14:15:55.723Z,5.00
2023-10-12T14:17:57.854Z,5.50
2023-10-12T14:19:59.718Z,5.20
2023-10-12T14:22:04.792Z,5.38
2023-10-12T14:24:08.774Z,5.30
2023-10-12T14:26:11.930Z,5.80
2023-10-12T14:28:17.529Z,4.95
2023-10-12T14:30:26.249Z,5.20
2023-10-12T14:32:27.976Z,4.85
2023-10-12T14:34:30.512Z,5.57
2023-10-12T14:36:32.153Z,4.70
2023-10-12T14:38:35.761Z,5.25
2023-10-12T14:40:41.677Z,5.65
2023-10-12T14:42:43.795Z,5.30
2023-10-12T14:44:47.089Z,5.22
2023-10-12T14:46:56.128Z,5.43
2023-10-12T14:48:59.570Z,5.28
2023-10-12T14:51:08.491Z,5.30
2023-10-12T14:53:16.906Z,5.20
2023-10-12T14:55:18.753Z,5.43
2023-10-12T14:57:20.911Z,5.53
2023-10-12T14:59:22.995Z,5.63
2023-10-12T15:01:29.684Z,5.00
2023-10-12T15:03:35.689Z,5.40
2023-10-12T15:05:38.590Z,5.30
2023-10-12T15:07:40.168Z,6.10
2023-10-12T15:09:49.452Z,6.22
2023-10-12T15:11:51.317Z,5.70
2023-10-12T15:13:54.827Z,5.22
2023-10-12T15:15:59.681Z,5.22
2023-10-12T15:18:01.477Z,5.78
2023-10-12T15:20:06.842Z,5.60
2023-10-12T15:22:08.846Z,5.75
2023-10-12T15:24:11.106Z,6.03
2023-10-12T15:26:14.816Z,5.38
2023-10-12T15:28:17.514Z,5.50
2023-10-12T15:30:19.158Z,5.55
2023-10-12T15:32:21.034Z,5.55
2023-10-12T15:34:22.782Z,5.88
2023-10-12T15:36:24.766Z,5.10
2023-10-12T15:38:34.055Z,5.50
2023-10-12T15:40:37.499Z,5.22
2023-10-12T15:42:41.035Z,5.43
2023-10-12T15:44:42.597Z,5.88
2023-10-12T15:46:46.252Z,5.10
2023-10-12T15:48:48.070Z,5.40
2023-10-12T15:50:51.405Z,4.82
2023-10-12T15:52:54.201Z,4.88
2023-10-12T15:54:55.860Z,5.47
2023-10-12T15:56:57.411Z,4.68
2023-10-12T15:59:02.565Z,5.13
2023-10-12T16:01:05.832Z,5.45
2023-10-12T16:03:08.421Z,5.22
2023-10-12T16:05:10.120Z,5.60
2023-10-12T16:07:18.163Z,5.30
2023-10-12T16:09:25.560Z,5.47
2023-10-12T16:11:27.255Z,5.18
2023-10-12T16:13:28.890Z,4.47
2023-10-12T16:15:30.591Z,4.70
2023-10-12T16:17:32.212Z,4.95
2023-10-12T16:19:33.983Z,5.53
2023-10-12T16:21:37.206Z,5.30
2023-10-12T16:23:38.830Z,5.72
2023-10-12T16:25:42.643Z,5.38
2023-10-12T16:27:49.894Z,5.28
2023-10-12T16:30:00.022Z,5.10
2023-10-12T16:32:02.469Z,5.35
2023-10-12T16:34:07.243Z,4.95
2023-10-12T16:36:10.030Z,5.10
2023-10-12T16:38:12.795Z,4.75
2023-10-12T16:40:16.672Z,5.10
2023-10-12T16:42:18.320Z,5.38
2023-10-12T16:44:19.845Z,5.65
2023-10-12T16:46:22.743Z,5.72
2023-10-12T16:48:30.118Z,5.10
2023-10-12T16:50:31.727Z,5.28
2023-10-12T16:52:33.734Z,5.00
2023-10-12T16:54:37.314Z,4.93
2023-10-12T16:56:41.858Z,5.45
2023-10-12T16:58:43.658Z,5.32
2023-10-12T17:00:45.654Z,5.38
2023-10-12T17:04:53.326Z,5.32
2023-10-12T17:06:55.504Z,5.50
2023-10-12T17:08:57.060Z,6.75
2023-10-12T17:11:01.184Z,6.45
2023-10-12T17:13:03.422Z,6.65
2023-10-12T17:17:08.755Z,6.28
2023-10-12T17:19:11.905Z,5.18
2023-10-12T17:21:14.331Z,6.75
2023-10-12T17:23:17.025Z,6.05
2023-10-12T17:25:19.080Z,5.43
2023-10-12T17:27:20.756Z,5.70
2023-10-12T17:29:22.714Z,6.20
2023-10-12T17:31:29.893Z,6.10
2023-10-12T17:33:31.652Z,5.97
2023-10-12T17:35:34.355Z,5.65
2023-10-12T17:37:36.099Z,6.20
2023-10-12T17:39:39.678Z,5.75
2023-10-12T17:41:41.270Z,7.15
2023-10-12T17:43:42.851Z,6.97
2023-10-12T17:45:45.307Z,7.38
2023-10-12T17:47:47.492Z,7.18
2023-10-12T17:49:51.155Z,6.85
2023-10-12T17:51:55.492Z,5.90
2023-10-12T17:53:57.976Z,6.38
2023-10-12T17:55:59.475Z,6.80
2023-10-12T17:58:01.031Z,7.40
2023-10-12T18:00:02.587Z,7.47
2023-10-12T18:02:08.806Z,9.25
2023-10-12T18:04:10.582Z,7.90
2023-10-12T18:06:13.074Z,8.00
2023-10-12T18:08:15.270Z,6.75
2023-10-12T18:12:19.356Z,8.20
2023-10-12T18:14:21.022Z,7.43
2023-10-12T18:16:23.280Z,7.00
2023-10-12T18:20:27.085Z,6.43
2023-10-12T18:22:29.067Z,6.63
2023-10-12T18:24:30.681Z,6.38
2023-10-12T18:26:32.881Z,7.43
2023-10-12T18:30:38.373Z,6.65
2023-10-12T18:32:42.086Z,6.88
2023-10-12T18:34:46.991Z,6.60
2023-10-12T18:36:58.121Z,6.32
2023-10-12T18:39:08.137Z,6.35
2023-10-12T18:41:16.359Z,6.68
2023-10-12T18:45:20.753Z,6.10
2023-10-12T18:47:28.180Z,6.30
2023-10-12T18:49:29.963Z,6.28
2023-10-12T18:51:31.549Z,6.43
2023-10-12T18:53:33.649Z,6.45
2023-10-12T18:55:35.365Z,7.15
2023-10-12T18:57:42.692Z,6.03
2023-10-12T18:59:44.576Z,6.75
2023-10-12T19:01:46.322Z,6.63
2023-10-12T19:03:48.000Z,6.70
2023-10-12T19:05:50.205Z,6.35
2023-10-12T19:07:51.718Z,6.40
2023-10-12T19:09:53.804Z,6.70
2023-10-12T19:11:55.594Z,6.75
2023-10-12T19:13:57.219Z,6.60
2023-10-12T19:15:59.002Z,6.95
2023-10-12T19:18:03.073Z,7.47
2023-10-12T19:20:12.135Z,6.85
2023-10-12T19:22:13.995Z,6.35
2023-10-12T19:24:15.491Z,6.40
2023-10-12T19:26:17.061Z,6.82
2023-10-12T19:28:20.019Z,6.68
2023-10-12T19:30:21.997Z,6.40
2023-10-12T19:32:25.670Z,6.68
2023-10-12T19:34:29.472Z,6.60
2023-10-12T19:36:31.638Z,6.05
2023-10-12T19:38:34.362Z,5.95
2023-10-12T19:40:36.089Z,6.10
2023-10-12T19:42:38.811Z,6.45
2023-10-12T19:44:40.532Z,6.38
2023-10-12T19:46:42.306Z,5.85
2023-10-12T19:48:45.966Z,5.75
2023-10-12T19:50:49.700Z,5.90
2023-10-12T19:52:51.668Z,6.13
2023-10-12T19:54:53.755Z,6.32
2023-10-12T19:56:56.257Z,6.03
2023-10-12T19:58:59.451Z,6.18
2023-10-12T20:01:11.956Z,5.93
2023-10-12T20:03:17.038Z,6.47
2023-10-12T20:05:18.812Z,6.47
2023-10-12T20:07:20.575Z,5.60
2023-10-12T20:09:29.077Z,6.00
2023-10-12T20:11:30.730Z,6.40
2023-10-12T20:13:38.819Z,5.68
2023-10-12T20:15:40.436Z,6.05
2023-10-12T20:17:43.565Z,5.72
2023-10-12T20:19:47.239Z,6.05
2023-10-12T20:21:49.059Z,5.22
2023-10-12T20:23:50.732Z,5.18
2023-10-12T20:25:55.415Z,5.47
2023-10-12T20:27:57.009Z,5.30
2023-10-12T20:29:58.554Z,5.68
2023-10-12T20:32:00.388Z,5.00
2023-10-12T20:34:02.015Z,5.63
2023-10-12T20:36:05.828Z,5.15
2023-10-12T20:38:12.630Z,5.88
2023-10-12T20:40:15.205Z,5.32
2023-10-12T20:42:16.759Z,6.22
2023-10-12T20:44:20.781Z,5.35
2023-10-12T20:46:23.317Z,5.20
2023-10-12T20:48:29.016Z,5.82
2023-10-12T20:50:30.772Z,5.65
2023-10-12T20:52:34.366Z,5.28
2023-10-12T20:54:42.600Z,4.85
2023-10-12T20:58:46.344Z,5.25
2023-10-12T21:00:58.597Z,5.10
2023-10-12T21:03:06.250Z,5.30
2023-10-12T21:05:09.612Z,5.65
2023-10-12T21:07:12.043Z,6.53
2023-10-12T21:09:14.350Z,5.18
2023-10-12T21:11:24.933Z,4.60
2023-10-12T21:13:31.626Z,5.47
2023-10-12T21:15:33.205Z,5.80
2023-10-12T21:17:34.962Z,5.15
2023-10-12T21:19:46.202Z,5.50
2023-10-12T21:21:51.168Z,5.45
2023-10-12T21:23:53.378Z,5.03
2023-10-12T21:28:11.591Z,4.70
2023-10-12T21:30:17.423Z,4.88
2023-10-12T21:32:28.079Z,4.82
2023-10-12T21:34:33.618Z,4.60
2023-10-12T21:36:43.738Z,5.10
2023-10-12T21:38:46.372Z,4.68
2023-10-12T21:40:48.173Z,4.95
2023-10-12T21:42:50.220Z,5.00
2023-10-12T21:44:56.144Z,5.47
2023-10-12T21:47:03.724Z,4.90
2023-10-12T21:49:09.888Z,5.38
2023-10-12T21:51:11.442Z,4.15
2023-10-12T21:53:14.121Z,5.07
2023-10-12T21:55:16.001Z,4.70
2023-10-12T21:57:17.737Z,4.72
2023-10-12T21:59:21.226Z,3.97
2023-10-12T22:01:36.445Z,4.15
2023-10-12T22:03:39.719Z,4.40
2023-10-12T22:05:46.078Z,4.32
2023-10-12T22:07:47.556Z,5.03
2023-10-12T22:10:03.861Z,4.50
2023-10-12T22:12:06.059Z,4.80
2023-10-12T22:14:17.073Z,4.63
2023-10-12T22:16:32.178Z,4.80
2023-10-12T22:18:34.161Z,4.68
2023-10-12T22:20:35.737Z,4.65
2023-10-12T22:22:37.342Z,4.45
2023-10-12T22:24:39.194Z,5.15
2023-10-12T22:26:43.659Z,5.00
2023-10-12T22:28:45.377Z,4.82
2023-10-12T22:30:51.791Z,5.05
2023-10-12T22:32:53.806Z,4.93
2023-10-12T22:36:57.064Z,4.22
2023-10-12T22:38:58.899Z,3.95
2023-10-12T22:41:02.182Z,5.10
2023-10-12T22:43:04.027Z,4.93
2023-10-12T22:45:06.993Z,4.55
2023-10-12T22:47:10.029Z,5.20
2023-10-12T22:49:12.972Z,5.47
2023-10-12T22:51:14.727Z,4.93
2023-10-12T22:53:16.321Z,4.85
2023-10-12T22:55:18.006Z,4.80
2023-10-12T22:57:19.560Z,4.40
2023-10-12T22:59:21.542Z,4.55
2023-10-12T23:01:23.373Z,5.53
2023-10-12T23:03:25.086Z,5.38
2023-10-12T23:05:26.670Z,5.50
2023-10-12T23:07:28.261Z,5.32
2023-10-12T23:09:30.648Z,5.70
2023-10-12T23:11:35.117Z,4.90
2023-10-12T23:13:36.996Z,5.32
2023-10-12T23:15:44.524Z,5.22
2023-10-12T23:17:47.022Z,4.32
2023-10-12T23:19:49.544Z,4.28
2023-10-12T23:21:53.989Z,3.40
2023-10-12T23:23:55.535Z,4.38
2023-10-12T23:26:01.795Z,4.15
2023-10-12T23:28:06.918Z,4.63
2023-10-12T23:30:18.546Z,3.83
2023-10-12T23:32:21.011Z,3.58
2023-10-12T23:34:22.553Z,3.92
2023-10-12T23:36:29.008Z,4.05
2023-10-12T23:38:37.447Z,3.90
2023-10-12T23:40:48.693Z,3.58
2023-10-12T23:42:50.724Z,4.13
2023-10-12T23:44:54.962Z,4.15
2023-10-12T23:46:58.577Z,3.20
2023-10-12T23:49:06.620Z,3.33
2023-10-12T23:51:14.188Z,4.20
2023-10-12T23:53:19.473Z,4.00
2023-10-12T23:55:31.074Z,3.90
2023-10-12T23:57:35.236Z,3.38
2023-10-12T23:59:37.376Z,3.30
